Fall Series II                                 
                                  Overall Male                                  
                                October 20, 2019                                

For result questions, please e-mail John Garner at raceresults@pprrun.org.

If you have other questions about the race, please send an e-mail to fallseries@pprrun.org

Weather: Partly cloudy, temps in the mid 40s, wind chills in upper 30s.  Winds 20-30 mph with stronger gusts.

OPlc GPlc AGPlc AGrp   Bib Name                  Age Sex City                 St Gun     Chip    Pace    NumPrev TeamName                     
   1    1     1 M20-24 593 Jamie Moore            23  M  Colorado Springs     CO 0:22:04 0:22:03 0:05:31          
   2    2     1 M30-34  32 Brent Bailey           33  M  Colorado Springs     CO 0:22:38 0:22:37 0:05:39    5    Jurasskicked 
   3    3     2 M30-34 533 Kyle Anibas            31  M  Colorado Springs     CO 0:23:00 0:22:59 0:05:45    7     
   4    4     2 M20-24  82 Collin Bruske          20  M  Colorado Springs     CO 0:23:05 0:23:05 0:05:46    1     
   5    5     3 M20-24 144 Jarrett Eller          24  M  Monument             CO 0:23:10 0:23:09 0:05:47         Tri-Lakes Runners 
   6    6     4 M20-24 437 Grehson Smith          21  M  Colorado Springs     CO 0:23:17 0:23:16 0:05:49    1    Tri-Lakes Runners 
   7    7     1 M15-19 160 Alexander Fernandez    19  M  Monument             CO 0:23:20 0:23:20 0:05:50    4    Tri-Lakes Runners 
   8    8     1 M40-44 246 Marc Johnson           42  M  Monument             CO 0:23:41 0:23:41 0:05:55    10   Tri-Lakes Runners 
   9    9     3 M30-34 202 Ryan Hafer             33  M  Colorado Springs     CO 0:23:48 0:23:47 0:05:57    2     
  10   10     1 M35-39 443 Vitaly Stepanov        37  M  Colorado Springs     CO 0:23:51 0:23:50 0:05:58    7     
  11   11     1 M45-49 280 Toby Lefere            48  M  Colorado Springs     CO 0:24:04 0:24:02 0:06:01    9     
  12   12     1 M25-29 365 Seth Polich            26  M  Colorado Springs     CO 0:24:21 0:24:20 0:06:05    1    Tri-Lakes Runners 
  13   13     2 M40-44 111 Marcus Corbett         42  M  Colorado Springs     CO 0:24:25 0:24:23 0:06:06    18   Fossil Fueled 
  14   14     2 M25-29 482 Stephen VanGampleare   29  M  Colorado Springs     CO 0:24:36 0:24:36 0:06:09    1    Fossil Fueled 
  15   15     4 M30-34 355 Nick Parton            33  M  Colorado Springs     CO 0:24:47 0:24:46 0:06:12    12   Fossil Fueled 
  16   16     2 M35-39 330 Jason Miranov          36  M  Colorado Springs     CO 0:24:55 0:24:54 0:06:14    2     
  17   17     3 M35-39 368 Branden Rakita         38  M  Colorado Springs     CO 0:25:00 0:24:59 0:06:15    21    
  18   18     3 M40-44 221 Keith Henry            42  M  Manitou Springs      CO 0:25:10 0:25:08 0:06:17    1    Storybook Brewery 
  19   19     4 M35-39 230 Chad Holderbaum        39  M  Colorado Springs     CO 0:25:28 0:25:26 0:06:22    5     
  20   20     2 M45-49  52 Bryan Beiner           46  M  Colorado Springs     CO 0:25:39 0:25:38 0:06:25    19    

OPlc GPlc AGPlc AGrp   Bib Name                  Age Sex City                 St Gun     Chip    Pace    NumPrev TeamName                     
  21   21     5 M35-39 408 Miguel Sandoval        35  M  Colorado Springs     CO 0:25:54 0:25:52 0:06:28    2     
  22   22     6 M35-39 118 Steve Crumpler         37  M  Colorado Springs     CO 0:26:06 0:26:03 0:06:31    12   Jurasskicked 
  23   23     3 M45-49 464 Wes Thurman            47  M  Colorado Springs     CO 0:26:08 0:26:06 0:06:32    45    
  24   24     2 M15-19 607 Aiden Walker           15  M  Colorado Springs        0:26:16 0:26:14 0:06:34          
  25   25     3 M25-29 573 Marcus Hatter          27  M  Colorado Springs     CO 0:26:35 0:26:32 0:06:38    1     
  26   26     4 M45-49 381 Duane Roberson         47  M  Colorado Springs     CO 0:26:40 0:26:39 0:06:40    41    
  27   27     4 M25-29 541 Alec Bohn              27  M  Colorado Springs     CO 0:26:43 0:26:40 0:06:40         Colorado Mountain Brewery 
  28   28     5 M45-49 310 David Martinez         46  M  Colorado Springs     CO 0:26:46 0:26:42 0:06:41    8     
  30   29     5 M25-29 379 Sean Rimmer            27  M  Colorado Springs     CO 0:26:54 0:26:51 0:06:43    1     
  32   30     4 M40-44 526 Tom Caughlan           40  M  Colorado Springs     CO 0:27:03 0:27:01 0:06:45    23   Fossil Fueled 
  33   31     3 M15-19 556 David Palmer           19  M  La Junta             CO 0:27:02 0:27:02 0:06:46          
  34   32     4 M15-19 240 Joe Jardeleza          15  M  Colorado Springs     CO 0:27:18 0:27:16 0:06:49    1     
  35   33     7 M35-39 121 Joel Dagnillo          37  M  Colorado Springs     CO 0:27:24 0:27:22 0:06:51    5     
  37   34     6 M45-49 500 Jay Watts              47  M  Falcon               CO 0:27:32 0:27:27 0:06:52    13    
  38   35     1 M50-54 517 Brett Wilson           51  M  Colorado Springs     CO 0:27:31 0:27:29 0:06:52    75    
  39   36     5 M30-34 120 Stephen Cucchiara      32  M  Colorado Springs     CO 0:27:38 0:27:34 0:06:54    1    Red Leg 
  41   37     1 M55-59 150 Alex Escarcega         55  M  Peyton               CO 0:27:45 0:27:42 0:06:56    12    
  42   38     5 M20-24 135 Gregory Dotseth        24  M  Colorado Springs     CO 0:27:54 0:27:51 0:06:58    5     
  43   39     2 M50-54 498 Mike Wasson            53  M  Colorado Springs     CO 0:28:06 0:28:05 0:07:01    19    
  44   40     3 M50-54 319 Michael McGann         52  M  Colorado Springs     CO 0:28:19 0:28:17 0:07:04    11    

OPlc GPlc AGPlc AGrp   Bib Name                  Age Sex City                 St Gun     Chip    Pace    NumPrev TeamName                     
  45   41     5 M40-44 488 Shawn Walker           42  M  Colorado Springs     CO 0:28:27 0:28:24 0:07:06    18    
  46   42     6 M40-44 346 Jason Nunnery          42  M  Colorado Springs     CO 0:28:42 0:28:32 0:07:08    1     
  47   43     4 M50-54 263 Robbie Keyser          51  M  Colorado Springs     CO 0:28:45 0:28:42 0:07:11    7     
  49   44     5 M50-54 275 David Kuritar          52  M  Colorado Springs     CO 0:28:54 0:28:51 0:07:13    9     
  50   45     7 M45-49 328 Joe Miller             47  M  Colorado Springs     CO 0:28:56 0:28:53 0:07:13    6    Butternut Squashes 
  51   46     6 M50-54 287 Robert Little          50  M  Peyton               CO 0:29:06 0:29:01 0:07:15    12    
  52   47     8 M45-49 268 Nathaniel Kisergreen   49  M  Colorado Springs     CO 0:29:03 0:29:01 0:07:15    28    
  53   48     8 M35-39 251 Craig Kaufmann         39  M  Colorado Springs     CO 0:29:07 0:29:04 0:07:16    1    Beer Pressure 
  54   49     6 M25-29 492 Michael Walton         28  M  Colorado Springs     CO 0:36:43 0:29:10 0:07:18    1     
  55   50     1 M60-64 531 Scott Trimboli         60  M  Colorado Springs     CO 0:29:18 0:29:13 0:07:18    10    
  56   51     2 M55-59 419 Tom Seeman             57  M  Colorado Springs     CO 0:29:19 0:29:15 0:07:19    5     
  57   52     7 M25-29 273 Malcolm Konik          25  M  Colorado Springs     CO 0:29:22 0:29:17 0:07:19    5     
  59   53     7 M40-44 113 Jeff Courtright        40  M  Colorado Springs     CO 0:29:31 0:29:28 0:07:22    1    Beer Pressure 
  60   54     3 M55-59   9 Tim Allison            58  M  Colorado Springs     CO 0:29:54 0:29:51 0:07:28    35    
  61   55     9 M35-39 269 Daniel Kitchie         35  M  Colorado Springs     CO 0:30:02 0:29:53 0:07:28    1     
  62   56     8 M40-44 351 Jeremey Parkhurst      40  M  Colorado Springs     CO 0:30:10 0:30:03 0:07:31    2    Brass Brewing 
  63   57     9 M40-44 214 Richard Hedlind        43  M  Colorado Springs     CO 0:30:09 0:30:05 0:07:31    28    
  64   58     6 M30-34  75 Roland Brodeur         32  M  Colorado Springs     CO 0:30:23 0:30:17 0:07:34    13    
  65   59    10 M40-44 598 Andy Shawver           44  M  Colorado Springs     CO 0:30:28 0:30:24 0:07:36    25    
  67   60    10 M35-39 434 Christopher Sipe       38  M  Colorado Springs     CO 0:31:01 0:30:41 0:07:40          

OPlc GPlc AGPlc AGrp   Bib Name                  Age Sex City                 St Gun     Chip    Pace    NumPrev TeamName                     
  68   61     9 M45-49 602 Troy McCubbin          46  M  Colorado Springs     CO 0:30:53 0:30:44 0:07:41         Red Leg 
  69   62     8 M25-29 614 Ian Sugg               27  M  Colorado Springs     CO 0:30:57 0:30:44 0:07:41         Brass Brewing 
  70   63     7 M30-34  81 Allen Browne           32  M  Colorado Springs     CO 0:30:53 0:30:50 0:07:43    19    
  71   64    11 M35-39 353 Stephen Parnell        35  M  Monument             CO 0:31:13 0:30:55 0:07:44    13    
  72   65     9 M25-29 291 Aaron Lubelski         26  M  Colorado Springs     CO 0:31:05 0:30:58 0:07:45    5     
  73   66    12 M35-39 332 John Mohr              37  M  Colorado Springs     CO 0:31:06 0:30:59 0:07:45    5     
  74   67     8 M30-34 435 John Skolout           31  M  Colorado Springs     CO 0:31:13 0:31:06 0:07:47    2     
  75   68    13 M35-39 399 Joe Rozak              38  M  Colorado Springs     CO 0:31:19 0:31:14 0:07:49    9     
  77   69    10 M25-29 547 Ryan Mott              25  M  Colorado Springs     CO 0:31:31 0:31:23 0:07:51          
  78   70     7 M50-54 339 Joe Morales            53  M  Colorado Springs     CO 0:31:30 0:31:27 0:07:52    4     
  81   71    11 M40-44 107 Robert Comstock        44  M  Colorado Springs     CO 0:31:46 0:31:36 0:07:54    13    
  82   72    10 M45-49 575 Rick Hughes            49  M  Monument             CO 0:31:45 0:31:38 0:07:55          
  83   73    14 M35-39 384 Hans Robinson          37  M  Colorado Springs     CO 0:31:45 0:31:40 0:07:55    7    AltiDudes 2.0 
  84   74     9 M30-34  35 Bryan Balliett         30  M  Colorado Springs     CO 0:31:49 0:31:41 0:07:55    5    Butternut Squashes 
  86   75     1 M65-69 370 Bernie Redlinger       69  M  Colorado Springs     CO 0:31:47 0:31:43 0:07:56    1     
  87   76     6 M20-24 491 Luke Walton            24  M  Colorado Springs     CO 0:39:22 0:31:49 0:07:57    1     
  88   77    11 M45-49 603 Ross Hadley            48  M  Peyton               CO 0:31:57 0:31:50 0:07:58    9     
  89   78    12 M45-49  14 Ruben Anaya            46  M  Colorado Springs     CO 0:32:06 0:31:51 0:07:58    5     
  91   79    15 M35-39 416 David Schultz Jr       35  M  Colorado Springs     CO 0:32:16 0:31:57 0:07:59          
  92   80     2 M65-69 210 Craig Hayes            67  M  Colorado Springs     CO 0:32:03 0:31:58 0:08:00    8     

OPlc GPlc AGPlc AGrp   Bib Name                  Age Sex City                 St Gun     Chip    Pace    NumPrev TeamName                     
  94   81    12 M40-44 423 Darren Serna           40  M  Colorado Springs     CO 0:32:34 0:32:28 0:08:07    9     
  95   82    13 M45-49 487 Paul Wakino            46  M  Colorado Springs     CO 0:32:52 0:32:38 0:08:10    31   Herd of Nerds 
  96   83    16 M35-39  48 Daniel Bay             35  M  Colorado Springs     CO 0:32:48 0:32:45 0:08:11    1    Beer Pressure 
  97   84     3 M65-69 409 Michael Schenk         66  M  Colorado Springs     CO 0:33:00 0:32:56 0:08:14    43    
  99   85     8 M50-54 490 Gregg Walsh            53  M  Colorado Springs     CO 0:33:22 0:33:09 0:08:17    4     
 100   86    10 M30-34 553 Jared Doke             33  M  Colorado Springs     CO 0:33:34 0:33:19 0:08:20    1     
 101   87    17 M35-39 383 Bruce Robinson         37  M  Colorado Springs     CO 0:33:41 0:33:20 0:08:20    1     
 103   88     9 M50-54 403 John Sacco             51  M  Colorado Springs     CO 0:33:42 0:33:21 0:08:20    9    SAAKI 
 104   89    14 M45-49  91 Stephen Camacho        49  M  Colorado Springs     CO 0:33:28 0:33:21 0:08:20    16    
 105   90    18 M35-39  62 Keith Blessing         39  M  Colorado Springs     CO 0:33:42 0:33:23 0:08:21    14   SAAKI 
 107   91     2 M60-64 504 Al Wegner              61  M  Colorado Springs     CO 0:33:35 0:33:29 0:08:22    1     
 111   92    19 M35-39  31 James Baginski         37  M  Colorado Springs     CO 0:33:47 0:33:37 0:08:24    1    Earth Thinkers 
 112   93     4 M55-59 401 Jim Rudolph            57  M  Colorado Springs     CO 0:33:43 0:33:38 0:08:25    9    SAAKI 
 115   94    13 M40-44 544 Clayton Couitt         40  M  Fountain             CO 0:34:21 0:33:54 0:08:29    3     
 116   95    11 M30-34  90 Winslow Cady           32  M  Colorado Springs     CO 0:34:03 0:33:56 0:08:29    1     
 117   96    15 M45-49 248 Jeremy Joiner          45  M  Colorado Springs     CO 0:34:10 0:33:57 0:08:29    40   Herd of Nerds 
 119   97    11 M25-29 543 Zachary Brown          26  M  Colorado Springs     CO 0:34:05 0:33:58 0:08:30          
 120   98    16 M45-49 335 Robert Moose           48  M  Colorado Springs     CO 0:34:20 0:34:02 0:08:31    11    
 122   99    14 M40-44 340 Kristofr Morgan        43  M  Colorado Springs     CO 0:34:26 0:34:07 0:08:32    1     
 123  100    10 M50-54 447 Shawn Sturm            52  M  Colorado Springs     CO 0:34:18 0:34:10 0:08:33    7     

OPlc GPlc AGPlc AGrp   Bib Name                  Age Sex City                 St Gun     Chip    Pace    NumPrev TeamName                     
 124  101     4 M65-69 350 Richard Park           66  M  Colorado Springs     CO 0:34:21 0:34:15 0:08:34    32    
 125  102    12 M25-29 608 Bryce Robbins          27  M  Colorado Springs     CO 0:34:32 0:34:15 0:08:34          
 126  103    11 M50-54  51 Gregory Beckum         51  M  Divide               CO 0:34:24 0:34:18 0:08:35    12   AltiDudes 2.0 
 132  104     5 M55-59 188 Kenneth Grace          56  M  Colorado Springs     CO 0:34:46 0:34:41 0:08:40    1    AltiDudes 2.0 
 133  105    12 M30-34 182 Julian Garduno         34  M  Colorado Springs     CO 0:34:52 0:34:45 0:08:41    1     
 136  106     6 M55-59 509 Rudy Wencl             55  M  Colorado Springs     CO 0:35:03 0:34:53 0:08:43    5     
 137  107    12 M50-54 439 Will Snyder            54  M  Colorado Springs     CO 0:35:15 0:34:59 0:08:45    8     
 139  108    13 M25-29 525 Evan Bays              26  M  Sedalia              CO 0:35:28 0:35:00 0:08:45          
 140  109     7 M55-59 342 David Mulligan         58  M  Colorado Springs     CO 0:35:08 0:35:03 0:08:46    18    
 142  110    13 M50-54 222 Chuck Herbst           51  M  Colorado Springs     CO 0:35:16 0:35:07 0:08:47    13    
 143  111     8 M55-59 609 Scott Robbins          57  M  Colorado Springs     CO 0:35:28 0:35:10 0:08:48          
 144  112     3 M60-64 424 Louie Serna            62  M  Colorado Springs     CO 0:35:21 0:35:14 0:08:49    20    
 150  113    14 M50-54 229 John Hilyard           50  M  Colorado Springs     CO 0:35:26 0:35:20 0:08:50    26   AltiDudes 2.0 
 152  114    17 M45-49 272 Kevin Komassa          45  M  Colorado Springs     CO 0:38:30 0:35:22 0:08:51    8     
 153  115    13 M30-34  38 Piotr Bartkow          32  M  Colorado Springs     CO 0:35:40 0:35:29 0:08:52    1     
 155  116    14 M30-34 417 Lincoln Scott          30  M  Colorado Springs     CO 0:35:43 0:35:34 0:08:54    5     
 156  117    18 M45-49  68 David Bloomfield       49  M  Colorado Springs     CO 0:35:49 0:35:40 0:08:55    17   Rusted Runners 
 158  118    19 M45-49 414 Ben Schultz            49  M  Colorado Springs     CO 0:36:08 0:35:50 0:08:58    1     
 159  119     9 M55-59 137 Michael Dotseth        57  M  Colorado Springs     CO 0:36:11 0:35:57 0:08:59    4     
 161  120    10 M55-59 420 Larry Seidman          56  M  Colorado Springs     CO 0:36:01 0:35:58 0:09:00    53   Team Rosco 

OPlc GPlc AGPlc AGrp   Bib Name                  Age Sex City                 St Gun     Chip    Pace    NumPrev TeamName                     
 163  121     5 M65-69 468 Mark Toupin            65  M  Colorado Springs     CO 0:36:07 0:36:00 0:09:00    1     
 164  122    15 M30-34 357 Aaron Paul             33  M  Colorado Springs     CO 0:36:18 0:36:04 0:09:01    9     
 167  123    15 M50-54 600 Bob Bodor              53  M  Manitou Springs      CO 0:36:17 0:36:14 0:09:04    1     
 172  124    16 M30-34 611 J.J. Podhirny          34  M  Colorado Springs     CO 0:36:34 0:36:29 0:09:07          
 173  125    15 M40-44 520 Chris Young            41  M  Colorado Springs     CO 0:36:41 0:36:36 0:09:09    8     
 174  126    20 M45-49 376 John Rettig            49  M  Colorado Springs     CO 0:36:45 0:36:36 0:09:09    1     
 175  127    11 M55-59 532 Ken Trousdale          57  M  Peyton               CO 0:36:46 0:36:38 0:09:10    9     
 177  128     4 M60-64 538 Jim Newton             62  M  Colorado Springs     CO 0:36:53 0:36:46 0:09:12    26    
 179  129    16 M50-54 595 Andrew Wilson          52  M  Elbert               CO 0:37:01 0:36:53 0:09:13    13    
 182  130    21 M45-49 345 Joy Nandi              48  M  Colorado Springs     CO 0:37:11 0:36:59 0:09:15    5    Mordedcai 
 183  131    16 M40-44 515 David Williams         41  M  Colorado Springs     CO 0:37:19 0:37:00 0:09:15    17    
 184  132    22 M45-49 102 Heath Christianson     46  M  Colorado Springs     CO 0:37:13 0:37:02 0:09:16    1     
 186  133    17 M40-44  21 Stephan Archer         43  M  Colorado Springs     CO 0:37:13 0:37:09 0:09:17    1     
 188  134     1 M70-74 405 Stephen Sager          72  M  Colorado Springs     CO 0:37:21 0:37:15 0:09:19    48    
 191  135    20 M35-39 412 Scott Schofield        38  M  Colorado Springs     CO 0:37:42 0:37:22 0:09:21    1     
 193  136    12 M55-59  84 Kenneth Buckey         57  M  Colorado Springs     CO 0:37:43 0:37:34 0:09:24    8     
 197  137    18 M40-44 386 Oliver Robinson        41  M  Colorado Springs     CO 0:38:00 0:37:37 0:09:24    1     
 199  138    13 M55-59 391 Robert Ronas           55  M  Divide               CO 0:37:47 0:37:39 0:09:25    62    
 200  139    14 M55-59 321 Eric McNeil            58  M  Colorado Springs     CO 0:37:57 0:37:46 0:09:27    42   Herd of Nerds 
 201  140    15 M55-59 467 Peter A. Tonsits       57  M  Colorado Springs     CO 0:37:52 0:37:48 0:09:27    72   SAAKI 

OPlc GPlc AGPlc AGrp   Bib Name                  Age Sex City                 St Gun     Chip    Pace    NumPrev TeamName                     
 202  141    21 M35-39 305 Logan Maldonado        37  M  Colorado Springs     CO 0:38:15 0:37:50 0:09:28    1     
 206  142    16 M55-59 431 Stephen A Shumway      59  M  Colorado Springs     CO 0:38:12 0:38:02 0:09:31    3     
 209  143    17 M30-34 508 William Weldon         30  M  Colorado Springs     CO 0:38:14 0:38:09 0:09:32    1     
 211  144    17 M50-54 283 Michael Leonard        53  M  Colorado Springs     CO 0:38:39 0:38:14 0:09:34    1     
 213  145    18 M50-54  78 Scott Brooks           54  M  Manitou Springs      CO 0:38:32 0:38:19 0:09:35    13    
 215  146    22 M35-39 461 Joshua Thomas          37  M  Colorado Springs     CO 0:38:47 0:38:25 0:09:36    25    
 216  147     6 M65-69 527 Michael Gardner        66  M  Colorado Springs     CO 0:38:51 0:38:38 0:09:40    8     
 217  148    19 M40-44 524 Jason Daily            44  M  Colorado Springs     CO 0:38:50 0:38:39 0:09:40    1     
 219  149     5 M15-19 588 Lucian Spurlin         16  M  Colorado Springs     CO 0:39:14 0:38:50 0:09:43          
 220  150    14 M25-29  29 Nick Baca              25  M  Colorado Springs     CO 0:39:04 0:38:53 0:09:43    5     
 221  151    23 M35-39 226 Adam Hertel            39  M  Colorado Springs     CO 0:39:02 0:38:53 0:09:43    1     
 222  152     5 M60-64 550 Frank Parker           61  M  Colorado Springs     CO 0:39:07 0:38:58 0:09:45          
 223  153     7 M65-69  57 Marcus Beyerle         67  M  Colorado Springs     CO 0:39:28 0:39:01 0:09:45    13    
 226  154    24 M35-39 186 Kevin Glaspie          37  M  Colorado Springs     CO 0:39:17 0:39:07 0:09:47    3     
 232  155    20 M40-44 441 Justin Spurlin         41  M  Colorado Springs     CO 0:39:46 0:39:21 0:09:50    5     
 239  156    19 M50-54 613 Tmo Didier             50  M  Colorado Springs     CO 0:40:04 0:39:51 0:09:58          
 243  157    18 M30-34 594 Jonathan Thomas        34  M  Colorado Springs     CO 0:40:27 0:40:04 0:10:01    10    
 244  158    25 M35-39 377 Jeremy Rickard         39  M  Colorado Springs     CO 0:40:23 0:40:06 0:10:02    9     
 245  159    20 M50-54 359 Paul Perea             53  M  Pueblo               CO 0:40:20 0:40:14 0:10:04         SAAKI 
 248  160     2 M70-74 502 Darrell Weaver         73  M  Colorado Springs     CO 0:40:29 0:40:16 0:10:04    55    

OPlc GPlc AGPlc AGrp   Bib Name                  Age Sex City                 St Gun     Chip    Pace    NumPrev TeamName                     
 250  161    21 M50-54 552 Ivan Diaz              53  M  Peyton               CO 0:40:53 0:40:31 0:10:08    1     
 253  162    21 M40-44 562 James Wiley            43  M  Woodland Park        CO 0:40:48 0:40:32 0:10:08          
 258  163    26 M35-39 323 Harsha Medu            38  M  Colorado Springs     CO 0:41:01 0:40:40 0:10:10    5     
 259  164    27 M35-39 579 Peter Porter           38  M  Woodland Park        CO 0:41:00 0:40:44 0:10:11          
 260  165    23 M45-49  44 Joseph Batista         48  M  Colorado Springs     CO 0:41:36 0:41:07 0:10:17          
 264  166     3 M70-74  50 Jim Beckenhaupt        72  M  Colorado Springs     CO 0:41:41 0:41:30 0:10:23    67    
 265  167    24 M45-49 224 Larry Herr             49  M  Colorado Springs     CO 0:41:54 0:41:30 0:10:23    5     
 271  168    25 M45-49 604 Jimmy J                49  M  Colorado Springs     CO 0:42:03 0:41:42 0:10:26         Black Forest Brewing Company 
 278  169    22 M40-44 539 Mark Zandarski         43  M  Colorado Springs     CO 0:42:55 0:42:36 0:10:39    7     
 279  170    17 M55-59 428 Stuart Shelton         57  M  Colorado Springs     CO 0:42:55 0:42:38 0:10:40    13    
 285  171    26 M45-49 143 Greg Earhart           48  M  Colorado Springs     CO 0:43:32 0:43:06 0:10:47    1     
 287  172     1 M80-84  22 Glen Ash               82  M  Colorado Springs     CO 0:43:27 0:43:12 0:10:48    9     
 288  173    28 M35-39  56 Michael Berlin         36  M  Denver               CO 0:43:25 0:43:15 0:10:49    12    
 289  174    22 M50-54 205 Bill Hallam            54  M  Colorado Springs     CO 0:43:35 0:43:17 0:10:49    7     
 291  175    27 M45-49 134 David Divine           49  M  Colorado Springs     CO 0:43:32 0:43:21 0:10:50    14    
 292  176    18 M55-59 557 Carlos Perez           56  M  Colorado Springs     CO 0:43:53 0:43:25 0:10:51          
 296  177    19 M30-34 358 Andrew Peloquin        34  M  Pendleton            SC 0:43:39 0:43:31 0:10:53          
 299  178    19 M55-59 451 David Sweetman         57  M  Colorado Springs     CO 0:44:03 0:43:47 0:10:57    10    
 304  179    28 M45-49 274 Adam Kosofsky          46  M  Woodland Park        CO 0:44:48 0:44:32 0:11:08    4     
 305  180    20 M55-59 285 Rory Lewis             58  M  Colorado Springs     CO 0:44:51 0:44:35 0:11:09    7     

OPlc GPlc AGPlc AGrp   Bib Name                  Age Sex City                 St Gun     Chip    Pace    NumPrev TeamName                     
 307  181    29 M45-49  71 Wayne Briggs           47  M  Colorado Springs     CO 0:45:12 0:44:57 0:11:14    4     
 309  182    23 M50-54 507 Christopher Welch      51  M  Palmer Lake          CO 0:45:37 0:45:15 0:11:19    3     
 310  183     6 M15-19  63 Alexander Bliss        17  M  Colorado Springs     CO 0:45:39 0:45:16 0:11:19    4     
 314  184     4 M70-74 270 Chuck Koehler          72  M  Colorado Springs     CO 0:45:54 0:45:36 0:11:24    9     
 315  185    29 M35-39  13 Timothy Altizer        36  M  Colorado Springs     CO 0:46:01 0:45:43 0:11:26    2     
 317  186    20 M30-34 523 Jonathan Zinn          31  M  Colorado Springs     CO 0:45:59 0:45:49 0:11:27    5     
 318  187     5 M70-74 228 Vance Hewuse           73  M  Colorado Springs     CO 0:46:22 0:46:00 0:11:30    10    
 327  188    24 M50-54 138 James Driscoll         52  M  Falcon               CO 0:47:29 0:47:18 0:11:50    16    
 333  189    21 M55-59 231 Robert Holsworth       58  M  Peyton               CO 0:49:06 0:48:38 0:12:10    9     
 335  190    30 M35-39 400 Benjamin Royall        39  M  Colorado Springs     CO 0:49:15 0:48:47 0:12:12    1     
 343  191    22 M55-59 325 Joseph Mendygral       57  M  Colorado Springs     CO 0:50:12 0:49:53 0:12:28    25    
 345  192    25 M50-54 396 Donovan Routsis        50  M  Peyton               CO 0:51:00 0:50:16 0:12:34    1    Black Forest Brewing Company 
 347  193    30 M45-49 569 Jeff Feltes            47  M  Colorado Springs     CO 0:50:41 0:50:29 0:12:37    4     
 348  194     6 M70-74 159 David Fenell           73  M  Colorado Springs     CO 0:50:50 0:50:35 0:12:39    30    
 356  195    26 M50-54 601 John Cassidy           54  M  Colorado Springs        0:52:26 0:52:07 0:13:02          
 360  196    27 M50-54 104 Randall Coan           53  M  Colorado Springs     CO 0:53:06 0:52:38 0:13:10    13   Atrevida 
 361  197     7 M15-19 176 Jerrod Gallup          15  M  Colorado Springs     CO 0:53:07 0:52:40 0:13:10    1     
 362  198     1 M75-79 485 John Vomastic          76  M  Manitou Springs      CO 0:54:22 0:53:51 0:13:28    9     
 365  199    31 M45-49  64 B. Jay Bliss           46  M  Colorado Springs     CO 0:55:44 0:55:19 0:13:50    5     
 368  200    31 M35-39 129 Gaetan Delavignette    38  M  Colorado Springs     CO 0:55:41 0:55:22 0:13:51    4     

OPlc GPlc AGPlc AGrp   Bib Name                  Age Sex City                 St Gun     Chip    Pace    NumPrev TeamName                     
 369  201    28 M50-54 489 Sam Waller             52  M  Colorado Springs     CO 0:55:47 0:55:23 0:13:51    1     
 371  202     8 M15-19 308 Justin Marshall        18  M  Colorado Springs     CO 0:56:25 0:56:00 0:14:00    1     
 373  203    29 M50-54 257 Kraig Keller           53  M  Colorado Springs     CO 0:56:49 0:56:22 0:14:06    12    
 376  204    30 M50-54 175 Jeff Gallup            54  M  Colorado Springs     CO 0:57:10 0:56:44 0:14:11    21    
 377  205    21 M30-34 167 Damien Ford            30  M  Colorado Springs     CO 0:58:42 0:58:20 0:14:35    1     
 380  206    23 M55-59 495 Breck Warner           55  M  Colorado Springs     CO 0:59:38 0:59:23 0:14:51    1     
 381  207    31 M50-54 452 Kenneth Tell           53  M  Colorado Springs     CO 1:00:14 0:59:49 0:14:57    1     
 400  208    24 M55-59 147 Richard Emond          57  M  Canon City           CO 0:04:47 1:38:45 0:24:41    43